Airport View

Enter AWOS ICAO identifier for current METAR.

ex. KFNL

PASM 261202Z AUTO 11009KT 10SM -RA BKN038 OVC100 14/13 A2998 RMK AO2 RAB1133 SLP157 P0000 60003 70009 T01440133 10144 20139 58001

26 Jun 2019 12:52

Frequency: 128.7

Other Area AWOS: PAMO - PADM - PAEM - PARS

TAF PABE 261135Z 2612/2712 13011KT P6SM -SHRA SCT020 BKN045 FM262000 16016G24KT P6SM -SHRA SCT015 BKN025 FM270200 18012KT P6SM SCT025 OVC050